sensor_id;sensor_type;location;lat;lon;timestamp;P1;durP1;ratioP1;P2;durP2;ratioP2
26824;SDS011;14402;48.178;11.566;2022-11-23T00:00:14;3.6;;;1.8;;
26824;SDS011;14402;48.178;11.566;2022-11-23T00:00:43;4.2;;;1.8;;
26824;SDS011;14402;48.178;11.566;2022-11-23T00:01:14;4.2;;;1.8;;
26824;SDS011;14402;48.178;11.566;2022-11-23T00:01:44;4.2;;;1.8;;
26824;SDS011;14402;48.178;11.566;2022-11-23T00:02:14;4.1;;;1.8;;
26824;SDS011;14402;48.178;11.566;2022-11-23T00:02:44;4.1;;;1.9;;
26824;SDS011;14402;48.178;11.566;2022-11-23T00:03:14;4.1;;;1.9;;
26824;SDS011;14402;48.178;11.566;2022-11-23T00:03:45;4.1;;;1.9;;
26824;SDS011;14402;48.178;11.566;2022-11-23T00:04:14;3.9;;;2.0;;
26824;SDS011;14402;48.178;11.566;2022-11-23T00:04:44;3.8;;;2.1;;
26824;SDS011;14402;48.178;11.566;2022-11-23T00:05:14;3.8;;;2.1;;
26824;SDS011;14402;48.178;11.566;2022-11-23T00:05:44;3.8;;;2.1;;
26824;SDS011;14402;48.178;11.566;2022-11-23T00:06:15;3.4;;;1.9;;
26824;SDS011;14402;48.178;11.566;2022-11-23T00:06:44;3.1;;;1.7;;
26824;SDS011;14402;48.178;11.566;2022-11-23T00:07:15;3.1;;;1.7;;
26824;SDS011;14402;48.178;11.566;2022-11-23T00:07:45;3.1;;;1.7;;
26824;SDS011;14402;48.178;11.566;2022-11-23T00:08:15;3.7;;;1.9;;
26824;SDS011;14402;48.178;11.566;2022-11-23T00:08:45;4.3;;;2.0;;
26824;SDS011;14402;48.178;11.566;2022-11-23T00:09:15;4.3;;;2.0;;
26824;SDS011;14402;48.178;11.566;2022-11-23T00:09:45;4.3;;;2.0;;
26824;SDS011;14402;48.178;11.566;2022-11-23T00:10:15;4.1;;;1.9;;
26824;SDS011;14402;48.178;11.566;2022-11-23T00:10:45;3.8;;;1.8;;
26824;SDS011;14402;48.178;11.566;2022-11-23T00:11:16;3.8;;;1.8;;
26824;SDS011;14402;48.178;11.566;2022-11-23T00:11:46;3.8;;;1.8;;
26824;SDS011;14402;48.178;11.566;2022-11-23T00:12:16;3.6;;;1.7;;
26824;SDS011;14402;48.178;11.566;2022-11-23T00:12:46;3.4;;;1.6;;
26824;SDS011;14402;48.178;11.566;2022-11-23T00:13:16;3.4;;;1.6;;
26824;SDS011;14402;48.178;11.566;2022-11-23T00:13:46;3.4;;;1.6;;
26824;SDS011;14402;48.178;11.566;2022-11-23T00:14:16;3.3;;;1.7;;
26824;SDS011;14402;48.178;11.566;2022-11-23T00:14:46;3.3;;;1.7;;
26824;SDS011;14402;48.178;11.566;2022-11-23T00:15:16;3.3;;;1.7;;
26824;SDS011;14402;48.178;11.566;2022-11-23T00:15:46;3.3;;;1.7;;
26824;SDS011;14402;48.178;11.566;2022-11-23T00:16:20;4.2;;;1.9;;
26824;SDS011;14402;48.178;11.566;2022-11-23T00:16:46;5.0;;;2.0;;
26824;SDS011;14402;48.178;11.566;2022-11-23T00:17:18;5.0;;;2.0;;
26824;SDS011;14402;48.178;11.566;2022-11-23T00:17:47;5.0;;;2.0;;
26824;SDS011;14402;48.178;11.566;2022-11-23T00:18:17;4.6;;;1.9;;
26824;SDS011;14402;48.178;11.566;2022-11-23T00:18:47;4.2;;;1.7;;
26824;SDS011;14402;48.178;11.566;2022-11-23T00:19:17;4.2;;;1.7;;
26824;SDS011;14402;48.178;11.566;2022-11-23T00:19:47;4.2;;;1.7;;
26824;SDS011;14402;48.178;11.566;2022-11-23T00:20:17;3.7;;;1.5;;
26824;SDS011;14402;48.178;11.566;2022-11-23T00:20:47;3.2;;;1.4;;
26824;SDS011;14402;48.178;11.566;2022-11-23T00:21:17;3.2;;;1.4;;
26824;SDS011;14402;48.178;11.566;2022-11-23T00:21:47;3.2;;;1.4;;
26824;SDS011;14402;48.178;11.566;2022-11-23T00:22:17;3.0;;;1.5;;
26824;SDS011;14402;48.178;11.566;2022-11-23T00:22:47;2.8;;;1.6;;
26824;SDS011;14402;48.178;11.566;2022-11-23T00:23:17;2.8;;;1.6;;
26824;SDS011;14402;48.178;11.566;2022-11-23T00:23:47;2.8;;;1.6;;
26824;SDS011;14402;48.178;11.566;2022-11-23T00:24:17;3.0;;;1.5;;
26824;SDS011;14402;48.178;11.566;2022-11-23T00:24:47;3.2;;;1.5;;
26824;SDS011;14402;48.178;11.566;2022-11-23T00:25:17;3.2;;;1.5;;
26824;SDS011;14402;48.178;11.566;2022-11-23T00:25:48;3.2;;;1.5;;
26824;SDS011;14402;48.178;11.566;2022-11-23T00:26:18;3.0;;;1.5;;
26824;SDS011;14402;48.178;11.566;2022-11-23T00:26:48;2.7;;;1.6;;
26824;SDS011;14402;48.178;11.566;2022-11-23T00:27:18;2.7;;;1.6;;
26824;SDS011;14402;48.178;11.566;2022-11-23T00:27:48;2.7;;;1.6;;
26824;SDS011;14402;48.178;11.566;2022-11-23T00:28:18;3.6;;;1.6;;
26824;SDS011;14402;48.178;11.566;2022-11-23T00:28:48;4.5;;;1.6;;
26824;SDS011;14402;48.178;11.566;2022-11-23T00:29:18;4.5;;;1.6;;
26824;SDS011;14402;48.178;11.566;2022-11-23T00:29:48;4.5;;;1.6;;
26824;SDS011;14402;48.178;11.566;2022-11-23T00:30:18;3.8;;;1.7;;
26824;SDS011;14402;48.178;11.566;2022-11-23T00:30:49;3.0;;;1.8;;
26824;SDS011;14402;48.178;11.566;2022-11-23T00:31:19;3.0;;;1.8;;
26824;SDS011;14402;48.178;11.566;2022-11-23T00:31:49;3.0;;;1.8;;
26824;SDS011;14402;48.178;11.566;2022-11-23T00:32:19;3.5;;;1.6;;
26824;SDS011;14402;48.178;11.566;2022-11-23T00:32:49;3.9;;;1.5;;
26824;SDS011;14402;48.178;11.566;2022-11-23T00:33:19;3.9;;;1.5;;
26824;SDS011;14402;48.178;11.566;2022-11-23T00:33:50;3.9;;;1.5;;
26824;SDS011;14402;48.178;11.566;2022-11-23T00:34:19;3.4;;;1.4;;
26824;SDS011;14402;48.178;11.566;2022-11-23T00:34:49;2.9;;;1.3;;
26824;SDS011;14402;48.178;11.566;2022-11-23T00:35:19;2.9;;;1.3;;
26824;SDS011;14402;48.178;11.566;2022-11-23T00:35:57;2.9;;;1.3;;
26824;SDS011;14402;48.178;11.566;2022-11-23T00:36:20;2.9;;;1.4;;
26824;SDS011;14402;48.178;11.566;2022-11-23T00:36:50;2.9;;;1.5;;
26824;SDS011;14402;48.178;11.566;2022-11-23T00:37:20;2.9;;;1.5;;
26824;SDS011;14402;48.178;11.566;2022-11-23T00:37:50;2.9;;;1.5;;
26824;SDS011;14402;48.178;11.566;2022-11-23T00:38:20;2.9;;;1.6;;
26824;SDS011;14402;48.178;11.566;2022-11-23T00:38:50;2.9;;;1.7;;
26824;SDS011;14402;48.178;11.566;2022-11-23T00:39:20;2.9;;;1.7;;
26824;SDS011;14402;48.178;11.566;2022-11-23T00:39:50;2.9;;;1.7;;
26824;SDS011;14402;48.178;11.566;2022-11-23T00:40:20;2.9;;;1.6;;
26824;SDS011;14402;48.178;11.566;2022-11-23T00:40:55;2.9;;;1.5;;
26824;SDS011;14402;48.178;11.566;2022-11-23T00:41:21;2.9;;;1.5;;
26824;SDS011;14402;48.178;11.566;2022-11-23T00:41:51;2.9;;;1.5;;
26824;SDS011;14402;48.178;11.566;2022-11-23T00:42:21;3.3;;;1.6;;
26824;SDS011;14402;48.178;11.566;2022-11-23T00:42:51;3.8;;;1.7;;
26824;SDS011;14402;48.178;11.566;2022-11-23T00:43:21;3.8;;;1.7;;
26824;SDS011;14402;48.178;11.566;2022-11-23T00:43:51;3.8;;;1.7;;
26824;SDS011;14402;48.178;11.566;2022-11-23T00:44:21;3.7;;;1.7;;
26824;SDS011;14402;48.178;11.566;2022-11-23T00:44:51;3.5;;;1.6;;
26824;SDS011;14402;48.178;11.566;2022-11-23T00:45:21;3.5;;;1.6;;
26824;SDS011;14402;48.178;11.566;2022-11-23T00:46:00;3.5;;;1.6;;
26824;SDS011;14402;48.178;11.566;2022-11-23T00:46:22;2.7;;;1.5;;
26824;SDS011;14402;48.178;11.566;2022-11-23T00:46:51;1.8;;;1.4;;
26824;SDS011;14402;48.178;11.566;2022-11-23T00:47:21;1.8;;;1.4;;
26824;SDS011;14402;48.178;11.566;2022-11-23T00:47:52;1.8;;;1.4;;
26824;SDS011;14402;48.178;11.566;2022-11-23T00:48:22;3.1;;;1.5;;
26824;SDS011;14402;48.178;11.566;2022-11-23T00:48:52;4.4;;;1.7;;
26824;SDS011;14402;48.178;11.566;2022-11-23T00:49:22;4.4;;;1.7;;
26824;SDS011;14402;48.178;11.566;2022-11-23T00:49:52;4.4;;;1.7;;
26824;SDS011;14402;48.178;11.566;2022-11-23T00:50:22;4.0;;;1.8;;
26824;SDS011;14402;48.178;11.566;2022-11-23T00:50:52;3.6;;;1.8;;
26824;SDS011;14402;48.178;11.566;2022-11-23T00:51:23;3.6;;;1.8;;
26824;SDS011;14402;48.178;11.566;2022-11-23T00:51:52;3.6;;;1.8;;
26824;SDS011;14402;48.178;11.566;2022-11-23T00:52:22;3.4;;;1.8;;
26824;SDS011;14402;48.178;11.566;2022-11-23T00:52:52;3.3;;;1.8;;
26824;SDS011;14402;48.178;11.566;2022-11-23T00:53:23;3.3;;;1.8;;
26824;SDS011;14402;48.178;11.566;2022-11-23T00:53:53;3.3;;;1.8;;
26824;SDS011;14402;48.178;11.566;2022-11-23T00:54:23;3.4;;;1.8;;
26824;SDS011;14402;48.178;11.566;2022-11-23T00:54:53;3.6;;;1.8;;
26824;SDS011;14402;48.178;11.566;2022-11-23T00:55:23;3.6;;;1.8;;
26824;SDS011;14402;48.178;11.566;2022-11-23T00:55:53;3.6;;;1.8;;
26824;SDS011;14402;48.178;11.566;2022-11-23T00:56:23;3.8;;;1.8;;
26824;SDS011;14402;48.178;11.566;2022-11-23T00:56:53;4.0;;;1.7;;
26824;SDS011;14402;48.178;11.566;2022-11-23T00:57:23;4.0;;;1.7;;
26824;SDS011;14402;48.178;11.566;2022-11-23T00:57:53;4.0;;;1.7;;
26824;SDS011;14402;48.178;11.566;2022-11-23T00:58:24;3.4;;;1.7;;
26824;SDS011;14402;48.178;11.566;2022-11-23T00:58:54;2.8;;;1.7;;
26824;SDS011;14402;48.178;11.566;2022-11-23T00:59:24;2.8;;;1.7;;
26824;SDS011;14402;48.178;11.566;2022-11-23T00:59:54;2.8;;;1.7;;
26824;SDS011;14402;48.178;11.566;2022-11-23T01:00:24;3.6;;;1.8;;
26824;SDS011;14402;48.178;11.566;2022-11-23T01:01:02;4.4;;;1.9;;
26824;SDS011;14402;48.178;11.566;2022-11-23T01:01:25;4.4;;;1.9;;
26824;SDS011;14402;48.178;11.566;2022-11-23T01:01:54;4.4;;;1.9;;
26824;SDS011;14402;48.178;11.566;2022-11-23T01:02:24;4.4;;;2.0;;
26824;SDS011;14402;48.178;11.566;2022-11-23T01:02:54;4.5;;;2.1;;
26824;SDS011;14402;48.178;11.566;2022-11-23T01:03:24;4.5;;;2.1;;
26824;SDS011;14402;48.178;11.566;2022-11-23T01:03:55;4.5;;;2.1;;
26824;SDS011;14402;48.178;11.566;2022-11-23T01:04:25;4.2;;;2.0;;
26824;SDS011;14402;48.178;11.566;2022-11-23T01:04:55;3.8;;;1.9;;
26824;SDS011;14402;48.178;11.566;2022-11-23T01:05:25;3.8;;;1.9;;
26824;SDS011;14402;48.178;11.566;2022-11-23T01:05:55;3.8;;;1.9;;
26824;SDS011;14402;48.178;11.566;2022-11-23T01:06:26;3.8;;;2.0;;
26824;SDS011;14402;48.178;11.566;2022-11-23T01:06:55;3.9;;;2.0;;
26824;SDS011;14402;48.178;11.566;2022-11-23T01:07:26;3.9;;;2.0;;
26824;SDS011;14402;48.178;11.566;2022-11-23T01:07:55;3.9;;;2.0;;
26824;SDS011;14402;48.178;11.566;2022-11-23T01:08:25;3.3;;;1.9;;
26824;SDS011;14402;48.178;11.566;2022-11-23T01:08:56;2.8;;;1.7;;
26824;SDS011;14402;48.178;11.566;2022-11-23T01:09:26;2.8;;;1.7;;
26824;SDS011;14402;48.178;11.566;2022-11-23T01:09:56;2.8;;;1.7;;
26824;SDS011;14402;48.178;11.566;2022-11-23T01:10:26;2.8;;;1.8;;
26824;SDS011;14402;48.178;11.566;2022-11-23T01:10:57;2.9;;;1.9;;
26824;SDS011;14402;48.178;11.566;2022-11-23T01:11:27;2.9;;;1.9;;
26824;SDS011;14402;48.178;11.566;2022-11-23T01:11:56;2.9;;;1.9;;
26824;SDS011;14402;48.178;11.566;2022-11-23T01:12:27;3.4;;;2.2;;
26824;SDS011;14402;48.178;11.566;2022-11-23T01:12:56;3.9;;;2.4;;
26824;SDS011;14402;48.178;11.566;2022-11-23T01:13:26;3.9;;;2.4;;
26824;SDS011;14402;48.178;11.566;2022-11-23T01:13:56;3.9;;;2.4;;
26824;SDS011;14402;48.178;11.566;2022-11-23T01:14:26;3.7;;;2.3;;
26824;SDS011;14402;48.178;11.566;2022-11-23T01:14:56;3.4;;;2.2;;
26824;SDS011;14402;48.178;11.566;2022-11-23T01:15:27;3.4;;;2.2;;
26824;SDS011;14402;48.178;11.566;2022-11-23T01:15:57;3.4;;;2.2;;
26824;SDS011;14402;48.178;11.566;2022-11-23T01:16:27;3.9;;;2.3;;
26824;SDS011;14402;48.178;11.566;2022-11-23T01:16:57;4.3;;;2.4;;
26824;SDS011;14402;48.178;11.566;2022-11-23T01:17:28;4.3;;;2.4;;
26824;SDS011;14402;48.178;11.566;2022-11-23T01:17:57;4.3;;;2.4;;
26824;SDS011;14402;48.178;11.566;2022-11-23T01:18:27;4.6;;;2.2;;
26824;SDS011;14402;48.178;11.566;2022-11-23T01:18:58;4.8;;;2.0;;
26824;SDS011;14402;48.178;11.566;2022-11-23T01:19:27;4.8;;;2.0;;
26824;SDS011;14402;48.178;11.566;2022-11-23T01:19:57;4.8;;;2.0;;
26824;SDS011;14402;48.178;11.566;2022-11-23T01:20:27;4.0;;;2.0;;
26824;SDS011;14402;48.178;11.566;2022-11-23T01:20:59;3.1;;;2.0;;
26824;SDS011;14402;48.178;11.566;2022-11-23T01:21:29;3.1;;;2.0;;
26824;SDS011;14402;48.178;11.566;2022-11-23T01:21:58;3.1;;;2.0;;
26824;SDS011;14402;48.178;11.566;2022-11-23T01:22:28;3.8;;;2.0;;
26824;SDS011;14402;48.178;11.566;2022-11-23T01:22:58;4.6;;;2.1;;
26824;SDS011;14402;48.178;11.566;2022-11-23T01:23:28;4.6;;;2.1;;
26824;SDS011;14402;48.178;11.566;2022-11-23T01:23:58;4.6;;;2.1;;
26824;SDS011;14402;48.178;11.566;2022-11-23T01:24:28;4.2;;;2.2;;
26824;SDS011;14402;48.178;11.566;2022-11-23T01:24:58;3.9;;;2.3;;
26824;SDS011;14402;48.178;11.566;2022-11-23T01:25:28;3.9;;;2.3;;
26824;SDS011;14402;48.178;11.566;2022-11-23T01:26:02;3.9;;;2.3;;
26824;SDS011;14402;48.178;11.566;2022-11-23T01:26:28;4.2;;;2.1;;
26824;SDS011;14402;48.178;11.566;2022-11-23T01:26:58;4.4;;;1.9;;
26824;SDS011;14402;48.178;11.566;2022-11-23T01:27:29;4.4;;;1.9;;
26824;SDS011;14402;48.178;11.566;2022-11-23T01:27:59;4.4;;;1.9;;
26824;SDS011;14402;48.178;11.566;2022-11-23T01:28:29;4.4;;;1.9;;
26824;SDS011;14402;48.178;11.566;2022-11-23T01:28:59;4.4;;;1.9;;
26824;SDS011;14402;48.178;11.566;2022-11-23T01:29:29;4.4;;;1.9;;
26824;SDS011;14402;48.178;11.566;2022-11-23T01:29:59;4.4;;;1.9;;
26824;SDS011;14402;48.178;11.566;2022-11-23T01:30:29;4.1;;;1.9;;
26824;SDS011;14402;48.178;11.566;2022-11-23T01:31:02;3.8;;;1.9;;
26824;SDS011;14402;48.178;11.566;2022-11-23T01:31:29;3.8;;;1.9;;
26824;SDS011;14402;48.178;11.566;2022-11-23T01:32:00;3.8;;;1.9;;
26824;SDS011;14402;48.178;11.566;2022-11-23T01:32:29;3.1;;;1.8;;
26824;SDS011;14402;48.178;11.566;2022-11-23T01:33:00;2.4;;;1.7;;
26824;SDS011;14402;48.178;11.566;2022-11-23T01:33:30;2.4;;;1.7;;
26824;SDS011;14402;48.178;11.566;2022-11-23T01:34:00;2.4;;;1.7;;
26824;SDS011;14402;48.178;11.566;2022-11-23T01:34:30;2.8;;;1.8;;
26824;SDS011;14402;48.178;11.566;2022-11-23T01:35:00;3.3;;;1.9;;
26824;SDS011;14402;48.178;11.566;2022-11-23T01:35:30;3.3;;;1.9;;
26824;SDS011;14402;48.178;11.566;2022-11-23T01:36:00;3.3;;;1.9;;
26824;SDS011;14402;48.178;11.566;2022-11-23T01:36:31;3.7;;;1.8;;
26824;SDS011;14402;48.178;11.566;2022-11-23T01:37:00;4.1;;;1.8;;
26824;SDS011;14402;48.178;11.566;2022-11-23T01:37:30;4.1;;;1.8;;
26824;SDS011;14402;48.178;11.566;2022-11-23T01:38:01;4.1;;;1.8;;
26824;SDS011;14402;48.178;11.566;2022-11-23T01:38:31;3.6;;;1.8;;
26824;SDS011;14402;48.178;11.566;2022-11-23T01:39:01;3.1;;;1.8;;
26824;SDS011;14402;48.178;11.566;2022-11-23T01:39:31;3.1;;;1.8;;
26824;SDS011;14402;48.178;11.566;2022-11-23T01:40:01;3.1;;;1.8;;
26824;SDS011;14402;48.178;11.566;2022-11-23T01:40:37;3.7;;;1.8;;
26824;SDS011;14402;48.178;11.566;2022-11-23T01:41:02;4.3;;;1.9;;
26824;SDS011;14402;48.178;11.566;2022-11-23T01:41:32;4.3;;;1.9;;
26824;SDS011;14402;48.178;11.566;2022-11-23T01:42:01;4.3;;;1.9;;
26824;SDS011;14402;48.178;11.566;2022-11-23T01:42:42;3.4;;;1.7;;
26824;SDS011;14402;48.178;11.566;2022-11-23T01:43:01;2.4;;;1.5;;
26824;SDS011;14402;48.178;11.566;2022-11-23T01:43:31;2.4;;;1.5;;
26824;SDS011;14402;48.178;11.566;2022-11-23T01:44:17;2.4;;;1.5;;
26824;SDS011;14402;48.178;11.566;2022-11-23T01:44:32;2.8;;;1.5;;
26824;SDS011;14402;48.178;11.566;2022-11-23T01:45:25;3.2;;;1.6;;
26824;SDS011;14402;48.178;11.566;2022-11-23T01:45:33;3.2;;;1.6;;
26824;SDS011;14402;48.178;11.566;2022-11-23T01:46:02;3.2;;;1.6;;
26824;SDS011;14402;48.178;11.566;2022-11-23T01:46:32;2.8;;;1.7;;
26824;SDS011;14402;48.178;11.566;2022-11-23T01:47:03;2.3;;;1.7;;
26824;SDS011;14402;48.178;11.566;2022-11-23T01:47:33;2.3;;;1.7;;
26824;SDS011;14402;48.178;11.566;2022-11-23T01:48:03;2.3;;;1.7;;
26824;SDS011;14402;48.178;11.566;2022-11-23T01:48:32;2.3;;;1.7;;
26824;SDS011;14402;48.178;11.566;2022-11-23T01:49:03;2.4;;;1.6;;
26824;SDS011;14402;48.178;11.566;2022-11-23T01:49:34;2.4;;;1.6;;
26824;SDS011;14402;48.178;11.566;2022-11-23T01:50:03;2.4;;;1.6;;
26824;SDS011;14402;48.178;11.566;2022-11-23T01:50:33;3.0;;;1.7;;
26824;SDS011;14402;48.178;11.566;2022-11-23T01:51:03;3.5;;;1.8;;
26824;SDS011;14402;48.178;11.566;2022-11-23T01:51:33;3.5;;;1.8;;
26824;SDS011;14402;48.178;11.566;2022-11-23T01:52:05;3.5;;;1.8;;
26824;SDS011;14402;48.178;11.566;2022-11-23T01:52:33;3.2;;;1.7;;
26824;SDS011;14402;48.178;11.566;2022-11-23T01:53:03;3.0;;;1.6;;
26824;SDS011;14402;48.178;11.566;2022-11-23T01:53:33;3.0;;;1.6;;
26824;SDS011;14402;48.178;11.566;2022-11-23T01:54:04;3.0;;;1.6;;
26824;SDS011;14402;48.178;11.566;2022-11-23T01:54:35;3.1;;;1.8;;
26824;SDS011;14402;48.178;11.566;2022-11-23T01:55:04;3.2;;;1.9;;
26824;SDS011;14402;48.178;11.566;2022-11-23T01:55:34;3.2;;;1.9;;
26824;SDS011;14402;48.178;11.566;2022-11-23T01:56:05;3.2;;;1.9;;
26824;SDS011;14402;48.178;11.566;2022-11-23T01:56:34;3.5;;;1.7;;
26824;SDS011;14402;48.178;11.566;2022-11-23T01:57:05;3.7;;;1.5;;
26824;SDS011;14402;48.178;11.566;2022-11-23T01:57:34;3.7;;;1.5;;
26824;SDS011;14402;48.178;11.566;2022-11-23T01:58:04;3.7;;;1.5;;
26824;SDS011;14402;48.178;11.566;2022-11-23T01:58:36;4.1;;;1.5;;
26824;SDS011;14402;48.178;11.566;2022-11-23T01:59:06;4.5;;;1.6;;
26824;SDS011;14402;48.178;11.566;2022-11-23T01:59:34;4.5;;;1.6;;
26824;SDS011;14402;48.178;11.566;2022-11-23T02:00:05;4.5;;;1.6;;
26824;SDS011;14402;48.178;11.566;2022-11-23T02:00:35;4.3;;;1.7;;
26824;SDS011;14402;48.178;11.566;2022-11-23T02:01:04;4.1;;;1.7;;
26824;SDS011;14402;48.178;11.566;2022-11-23T02:01:35;4.1;;;1.7;;
26824;SDS011;14402;48.178;11.566;2022-11-23T02:02:05;4.1;;;1.7;;
26824;SDS011;14402;48.178;11.566;2022-11-23T02:02:35;4.2;;;1.7;;
26824;SDS011;14402;48.178;11.566;2022-11-23T02:03:05;4.3;;;1.7;;
26824;SDS011;14402;48.178;11.566;2022-11-23T02:03:35;4.3;;;1.7;;
26824;SDS011;14402;48.178;11.566;2022-11-23T02:04:06;4.3;;;1.7;;
26824;SDS011;14402;48.178;11.566;2022-11-23T02:04:36;3.6;;;1.7;;
26824;SDS011;14402;48.178;11.566;2022-11-23T02:05:05;2.9;;;1.6;;
26824;SDS011;14402;48.178;11.566;2022-11-23T02:05:36;2.9;;;1.6;;
26824;SDS011;14402;48.178;11.566;2022-11-23T02:06:07;2.9;;;1.6;;
26824;SDS011;14402;48.178;11.566;2022-11-23T02:06:35;3.0;;;1.6;;
26824;SDS011;14402;48.178;11.566;2022-11-23T02:07:06;3.1;;;1.6;;
26824;SDS011;14402;48.178;11.566;2022-11-23T02:07:36;3.1;;;1.6;;
26824;SDS011;14402;48.178;11.566;2022-11-23T02:08:06;3.1;;;1.6;;
26824;SDS011;14402;48.178;11.566;2022-11-23T02:08:36;3.5;;;1.5;;
26824;SDS011;14402;48.178;11.566;2022-11-23T02:09:06;4.0;;;1.4;;
26824;SDS011;14402;48.178;11.566;2022-11-23T02:09:36;4.0;;;1.4;;
26824;SDS011;14402;48.178;11.566;2022-11-23T02:10:06;4.0;;;1.4;;
26824;SDS011;14402;48.178;11.566;2022-11-23T02:10:36;3.8;;;1.5;;
26824;SDS011;14402;48.178;11.566;2022-11-23T02:11:06;3.5;;;1.6;;
26824;SDS011;14402;48.178;11.566;2022-11-23T02:11:36;3.5;;;1.6;;
26824;SDS011;14402;48.178;11.566;2022-11-23T02:12:09;3.5;;;1.6;;
26824;SDS011;14402;48.178;11.566;2022-11-23T02:12:36;3.3;;;1.5;;
26824;SDS011;14402;48.178;11.566;2022-11-23T02:13:07;3.2;;;1.3;;
26824;SDS011;14402;48.178;11.566;2022-11-23T02:13:37;3.2;;;1.3;;
26824;SDS011;14402;48.178;11.566;2022-11-23T02:14:07;3.2;;;1.3;;
26824;SDS011;14402;48.178;11.566;2022-11-23T02:14:37;4.1;;;1.5;;
26824;SDS011;14402;48.178;11.566;2022-11-23T02:15:07;4.9;;;1.6;;
26824;SDS011;14402;48.178;11.566;2022-11-23T02:15:37;4.9;;;1.6;;
26824;SDS011;14402;48.178;11.566;2022-11-23T02:16:07;4.9;;;1.6;;
26824;SDS011;14402;48.178;11.566;2022-11-23T02:16:37;3.8;;;1.5;;
26824;SDS011;14402;48.178;11.566;2022-11-23T02:17:08;2.6;;;1.4;;
26824;SDS011;14402;48.178;11.566;2022-11-23T02:17:37;2.6;;;1.4;;
26824;SDS011;14402;48.178;11.566;2022-11-23T02:18:09;2.6;;;1.4;;
26824;SDS011;14402;48.178;11.566;2022-11-23T02:18:38;2.7;;;1.5;;
26824;SDS011;14402;48.178;11.566;2022-11-23T02:19:11;2.8;;;1.6;;
26824;SDS011;14402;48.178;11.566;2022-11-23T02:19:39;2.8;;;1.6;;
26824;SDS011;14402;48.178;11.566;2022-11-23T02:20:09;2.8;;;1.6;;
26824;SDS011;14402;48.178;11.566;2022-11-23T02:20:38;2.9;;;1.5;;
26824;SDS011;14402;48.178;11.566;2022-11-23T02:21:08;3.0;;;1.3;;
26824;SDS011;14402;48.178;11.566;2022-11-23T02:21:39;3.0;;;1.3;;
26824;SDS011;14402;48.178;11.566;2022-11-23T02:22:09;3.0;;;1.3;;
26824;SDS011;14402;48.178;11.566;2022-11-23T02:22:39;2.7;;;1.2;;
26824;SDS011;14402;48.178;11.566;2022-11-23T02:23:13;2.3;;;1.2;;
26824;SDS011;14402;48.178;11.566;2022-11-23T02:23:40;2.3;;;1.2;;
26824;SDS011;14402;48.178;11.566;2022-11-23T02:24:10;2.3;;;1.2;;
26824;SDS011;14402;48.178;11.566;2022-11-23T02:24:40;2.8;;;1.5;;
26824;SDS011;14402;48.178;11.566;2022-11-23T02:25:09;3.2;;;1.9;;
26824;SDS011;14402;48.178;11.566;2022-11-23T02:25:39;3.2;;;1.9;;
26824;SDS011;14402;48.178;11.566;2022-11-23T02:26:10;3.2;;;1.9;;
26824;SDS011;14402;48.178;11.566;2022-11-23T02:26:39;4.3;;;2.7;;
26824;SDS011;14402;48.178;11.566;2022-11-23T02:27:09;5.4;;;3.5;;
26824;SDS011;14402;48.178;11.566;2022-11-23T02:27:39;5.4;;;3.5;;
26824;SDS011;14402;48.178;11.566;2022-11-23T02:28:10;5.4;;;3.5;;
26824;SDS011;14402;48.178;11.566;2022-11-23T02:28:41;4.7;;;3.4;;
26824;SDS011;14402;48.178;11.566;2022-11-23T02:29:10;3.9;;;3.3;;
26824;SDS011;14402;48.178;11.566;2022-11-23T02:29:40;3.9;;;3.3;;
26824;SDS011;14402;48.178;11.566;2022-11-23T02:30:10;3.9;;;3.3;;
26824;SDS011;14402;48.178;11.566;2022-11-23T02:30:40;3.5;;;2.3;;
26824;SDS011;14402;48.178;11.566;2022-11-23T02:31:10;3.0;;;1.4;;
26824;SDS011;14402;48.178;11.566;2022-11-23T02:31:40;3.0;;;1.4;;
26824;SDS011;14402;48.178;11.566;2022-11-23T02:32:10;3.0;;;1.4;;
26824;SDS011;14402;48.178;11.566;2022-11-23T02:32:40;3.5;;;1.4;;
26824;SDS011;14402;48.178;11.566;2022-11-23T02:33:10;4.0;;;1.4;;
26824;SDS011;14402;48.178;11.566;2022-11-23T02:33:40;4.0;;;1.4;;
26824;SDS011;14402;48.178;11.566;2022-11-23T02:34:10;4.0;;;1.4;;
26824;SDS011;14402;48.178;11.566;2022-11-23T02:34:40;3.5;;;1.5;;
26824;SDS011;14402;48.178;11.566;2022-11-23T02:35:11;2.9;;;1.6;;
26824;SDS011;14402;48.178;11.566;2022-11-23T02:35:45;2.9;;;1.6;;
26824;SDS011;14402;48.178;11.566;2022-11-23T02:36:29;2.9;;;1.6;;
26824;SDS011;14402;48.178;11.566;2022-11-23T02:36:42;3.1;;;1.4;;
26824;SDS011;14402;48.178;11.566;2022-11-23T02:37:11;3.2;;;1.2;;
26824;SDS011;14402;48.178;11.566;2022-11-23T02:37:41;3.2;;;1.2;;
26824;SDS011;14402;48.178;11.566;2022-11-23T02:38:11;3.2;;;1.2;;
26824;SDS011;14402;48.178;11.566;2022-11-23T02:38:41;2.8;;;1.2;;
26824;SDS011;14402;48.178;11.566;2022-11-23T02:39:12;2.4;;;1.3;;
26824;SDS011;14402;48.178;11.566;2022-11-23T02:39:43;2.4;;;1.3;;
26824;SDS011;14402;48.178;11.566;2022-11-23T02:40:14;2.4;;;1.3;;
26824;SDS011;14402;48.178;11.566;2022-11-23T02:40:42;2.4;;;1.3;;
26824;SDS011;14402;48.178;11.566;2022-11-23T02:41:12;2.4;;;1.3;;
26824;SDS011;14402;48.178;11.566;2022-11-23T02:41:43;2.4;;;1.3;;
26824;SDS011;14402;48.178;11.566;2022-11-23T02:42:12;2.4;;;1.3;;
26824;SDS011;14402;48.178;11.566;2022-11-23T02:42:42;2.6;;;1.3;;
26824;SDS011;14402;48.178;11.566;2022-11-23T02:43:12;2.7;;;1.3;;
26824;SDS011;14402;48.178;11.566;2022-11-23T02:43:42;2.7;;;1.3;;
26824;SDS011;14402;48.178;11.566;2022-11-23T02:44:24;2.7;;;1.3;;
26824;SDS011;14402;48.178;11.566;2022-11-23T02:44:43;2.8;;;1.2;;
26824;SDS011;14402;48.178;11.566;2022-11-23T02:45:14;2.9;;;1.2;;
26824;SDS011;14402;48.178;11.566;2022-11-23T02:45:45;2.9;;;1.2;;
26824;SDS011;14402;48.178;11.566;2022-11-23T02:46:13;2.9;;;1.2;;
26824;SDS011;14402;48.178;11.566;2022-11-23T02:46:43;2.8;;;1.2;;
26824;SDS011;14402;48.178;11.566;2022-11-23T02:47:13;2.6;;;1.3;;
26824;SDS011;14402;48.178;11.566;2022-11-23T02:47:43;2.6;;;1.3;;
26824;SDS011;14402;48.178;11.566;2022-11-23T02:48:13;2.6;;;1.3;;
26824;SDS011;14402;48.178;11.566;2022-11-23T02:48:43;2.9;;;1.3;;
26824;SDS011;14402;48.178;11.566;2022-11-23T02:49:13;3.3;;;1.3;;
26824;SDS011;14402;48.178;11.566;2022-11-23T02:49:44;3.3;;;1.3;;
26824;SDS011;14402;48.178;11.566;2022-11-23T02:50:13;3.3;;;1.3;;
26824;SDS011;14402;48.178;11.566;2022-11-23T02:50:43;3.5;;;1.3;;
26824;SDS011;14402;48.178;11.566;2022-11-23T02:51:13;3.8;;;1.3;;
26824;SDS011;14402;48.178;11.566;2022-11-23T02:51:44;3.8;;;1.3;;
26824;SDS011;14402;48.178;11.566;2022-11-23T02:52:14;3.8;;;1.3;;
26824;SDS011;14402;48.178;11.566;2022-11-23T02:52:44;3.0;;;1.2;;
26824;SDS011;14402;48.178;11.566;2022-11-23T02:53:14;2.3;;;1.1;;
26824;SDS011;14402;48.178;11.566;2022-11-23T02:53:44;2.3;;;1.1;;
26824;SDS011;14402;48.178;11.566;2022-11-23T02:54:14;2.3;;;1.1;;
26824;SDS011;14402;48.178;11.566;2022-11-23T02:54:44;2.5;;;1.2;;
26824;SDS011;14402;48.178;11.566;2022-11-23T02:55:14;2.8;;;1.3;;
26824;SDS011;14402;48.178;11.566;2022-11-23T02:55:44;2.8;;;1.3;;
26824;SDS011;14402;48.178;11.566;2022-11-23T02:56:14;2.8;;;1.3;;
26824;SDS011;14402;48.178;11.566;2022-11-23T02:56:44;2.8;;;1.3;;
26824;SDS011;14402;48.178;11.566;2022-11-23T02:57:14;2.8;;;1.4;;
26824;SDS011;14402;48.178;11.566;2022-11-23T02:57:45;2.8;;;1.4;;
26824;SDS011;14402;48.178;11.566;2022-11-23T02:58:15;2.8;;;1.4;;
26824;SDS011;14402;48.178;11.566;2022-11-23T02:58:45;2.8;;;1.2;;
26824;SDS011;14402;48.178;11.566;2022-11-23T02:59:15;2.8;;;1.1;;
26824;SDS011;14402;48.178;11.566;2022-11-23T02:59:45;2.8;;;1.1;;
26824;SDS011;14402;48.178;11.566;2022-11-23T03:00:15;2.8;;;1.1;;
26824;SDS011;14402;48.178;11.566;2022-11-23T03:00:45;2.9;;;1.2;;
26824;SDS011;14402;48.178;11.566;2022-11-23T03:01:15;3.0;;;1.2;;
26824;SDS011;14402;48.178;11.566;2022-11-23T03:01:45;3.0;;;1.2;;
26824;SDS011;14402;48.178;11.566;2022-11-23T03:02:15;3.0;;;1.2;;
26824;SDS011;14402;48.178;11.566;2022-11-23T03:02:45;2.6;;;1.2;;
26824;SDS011;14402;48.178;11.566;2022-11-23T03:03:15;2.2;;;1.3;;
26824;SDS011;14402;48.178;11.566;2022-11-23T03:03:46;2.2;;;1.3;;